sensor_id;sensor_type;location;lat;lon;timestamp;temperature;humidity
7206;DHT22;3644;53.480;10.004;2023-03-23T00:01:47;13.80;99.90
7206;DHT22;3644;53.480;10.004;2023-03-23T00:04:18;13.80;99.90
7206;DHT22;3644;53.480;10.004;2023-03-23T00:06:44;13.70;99.90
7206;DHT22;3644;53.480;10.004;2023-03-23T00:09:12;13.70;99.90
7206;DHT22;3644;53.480;10.004;2023-03-23T00:11:37;13.70;99.90
7206;DHT22;3644;53.480;10.004;2023-03-23T00:14:04;13.70;99.90
7206;DHT22;3644;53.480;10.004;2023-03-23T00:16:32;13.50;99.90
7206;DHT22;3644;53.480;10.004;2023-03-23T00:19:03;13.50;99.90
7206;DHT22;3644;53.480;10.004;2023-03-23T00:21:32;13.50;99.90
7206;DHT22;3644;53.480;10.004;2023-03-23T00:26:32;13.50;99.90
7206;DHT22;3644;53.480;10.004;2023-03-23T00:29:00;13.40;99.90
7206;DHT22;3644;53.480;10.004;2023-03-23T00:31:26;13.40;99.90
7206;DHT22;3644;53.480;10.004;2023-03-23T00:33:57;13.40;99.90
7206;DHT22;3644;53.480;10.004;2023-03-23T00:36:24;13.20;99.90
7206;DHT22;3644;53.480;10.004;2023-03-23T00:38:49;13.10;99.90
7206;DHT22;3644;53.480;10.004;2023-03-23T00:41:15;13.20;99.90
7206;DHT22;3644;53.480;10.004;2023-03-23T00:43:41;13.20;99.90
7206;DHT22;3644;53.480;10.004;2023-03-23T00:46:06;13.20;99.90
7206;DHT22;3644;53.480;10.004;2023-03-23T00:48:37;13.20;99.90
7206;DHT22;3644;53.480;10.004;2023-03-23T00:51:10;13.20;99.90
7206;DHT22;3644;53.480;10.004;2023-03-23T00:53:37;13.20;99.90
7206;DHT22;3644;53.480;10.004;2023-03-23T00:56:03;13.10;99.90
7206;DHT22;3644;53.480;10.004;2023-03-23T00:58:28;13.20;99.90
7206;DHT22;3644;53.480;10.004;2023-03-23T01:00:54;13.20;99.90
7206;DHT22;3644;53.480;10.004;2023-03-23T01:03:20;13.10;99.90
7206;DHT22;3644;53.480;10.004;2023-03-23T01:05:46;13.10;99.90
7206;DHT22;3644;53.480;10.004;2023-03-23T01:08:17;13.10;99.90
7206;DHT22;3644;53.480;10.004;2023-03-23T01:10:44;13.10;99.90
7206;DHT22;3644;53.480;10.004;2023-03-23T01:13:10;13.10;99.90
7206;DHT22;3644;53.480;10.004;2023-03-23T01:15:35;13.10;99.90
7206;DHT22;3644;53.480;10.004;2023-03-23T01:18:01;13.10;99.90
7206;DHT22;3644;53.480;10.004;2023-03-23T01:20:27;13.10;99.90
7206;DHT22;3644;53.480;10.004;2023-03-23T01:22:54;13.20;99.90
7206;DHT22;3644;53.480;10.004;2023-03-23T01:25:32;13.30;99.90
7206;DHT22;3644;53.480;10.004;2023-03-23T01:28:00;13.30;99.90
7206;DHT22;3644;53.480;10.004;2023-03-23T01:30:26;13.20;99.90
7206;DHT22;3644;53.480;10.004;2023-03-23T01:32:52;13.20;99.90
7206;DHT22;3644;53.480;10.004;2023-03-23T01:35:18;13.20;99.90
7206;DHT22;3644;53.480;10.004;2023-03-23T01:37:43;13.10;99.90
7206;DHT22;3644;53.480;10.004;2023-03-23T01:40:10;13.10;99.90
7206;DHT22;3644;53.480;10.004;2023-03-23T01:42:37;13.10;99.90
7206;DHT22;3644;53.480;10.004;2023-03-23T01:45:23;13.10;99.90
7206;DHT22;3644;53.480;10.004;2023-03-23T01:47:54;13.10;99.90
7206;DHT22;3644;53.480;10.004;2023-03-23T01:50:22;13.10;99.90
7206;DHT22;3644;53.480;10.004;2023-03-23T01:52:50;13.10;99.90
7206;DHT22;3644;53.480;10.004;2023-03-23T01:55:16;13.00;99.90
7206;DHT22;3644;53.480;10.004;2023-03-23T01:57:42;13.10;99.90
7206;DHT22;3644;53.480;10.004;2023-03-23T02:00:08;13.10;99.90
7206;DHT22;3644;53.480;10.004;2023-03-23T02:02:42;13.20;99.90
7206;DHT22;3644;53.480;10.004;2023-03-23T02:05:14;13.20;99.90
7206;DHT22;3644;53.480;10.004;2023-03-23T02:07:41;13.10;99.90
7206;DHT22;3644;53.480;10.004;2023-03-23T02:10:07;13.00;99.90
7206;DHT22;3644;53.480;10.004;2023-03-23T02:12:33;13.00;99.90
7206;DHT22;3644;53.480;10.004;2023-03-23T02:14:59;12.90;99.90
7206;DHT22;3644;53.480;10.004;2023-03-23T02:25:52;12.90;99.90
7206;DHT22;3644;53.480;10.004;2023-03-23T02:33:43;13.00;99.90
7206;DHT22;3644;53.480;10.004;2023-03-23T02:39:05;13.00;99.90
7206;DHT22;3644;53.480;10.004;2023-03-23T02:41:41;12.90;99.90
7206;DHT22;3644;53.480;10.004;2023-03-23T02:44:08;13.00;99.90
7206;DHT22;3644;53.480;10.004;2023-03-23T02:46:35;13.00;99.90
7206;DHT22;3644;53.480;10.004;2023-03-23T02:49:03;13.10;99.90
7206;DHT22;3644;53.480;10.004;2023-03-23T02:51:31;13.10;99.90
7206;DHT22;3644;53.480;10.004;2023-03-23T02:53:58;13.10;99.90
7206;DHT22;3644;53.480;10.004;2023-03-23T02:56:25;13.10;99.90
7206;DHT22;3644;53.480;10.004;2023-03-23T02:58:53;13.10;99.90
7206;DHT22;3644;53.480;10.004;2023-03-23T03:04:10;13.10;99.90
7206;DHT22;3644;53.480;10.004;2023-03-23T03:07:20;13.10;99.90
7206;DHT22;3644;53.480;10.004;2023-03-23T03:13:15;13.10;99.90
7206;DHT22;3644;53.480;10.004;2023-03-23T03:15:47;13.10;99.90
7206;DHT22;3644;53.480;10.004;2023-03-23T03:18:19;13.10;99.90
7206;DHT22;3644;53.480;10.004;2023-03-23T03:20:54;13.20;99.90
7206;DHT22;3644;53.480;10.004;2023-03-23T03:23:22;13.20;99.90
7206;DHT22;3644;53.480;10.004;2023-03-23T03:25:50;13.20;99.90
7206;DHT22;3644;53.480;10.004;2023-03-23T03:28:18;13.20;99.90
7206;DHT22;3644;53.480;10.004;2023-03-23T03:30:48;13.10;99.90
7206;DHT22;3644;53.480;10.004;2023-03-23T03:33:16;13.10;99.90
7206;DHT22;3644;53.480;10.004;2023-03-23T03:35:43;13.00;99.90
7206;DHT22;3644;53.480;10.004;2023-03-23T03:38:10;13.10;99.90
7206;DHT22;3644;53.480;10.004;2023-03-23T03:40:36;13.20;99.90
7206;DHT22;3644;53.480;10.004;2023-03-23T03:43:02;13.20;99.90
7206;DHT22;3644;53.480;10.004;2023-03-23T03:45:28;13.20;99.90
7206;DHT22;3644;53.480;10.004;2023-03-23T03:47:53;13.20;99.90
7206;DHT22;3644;53.480;10.004;2023-03-23T03:50:19;13.10;99.90
7206;DHT22;3644;53.480;10.004;2023-03-23T03:52:44;13.10;99.90
7206;DHT22;3644;53.480;10.004;2023-03-23T03:55:10;13.00;99.90
7206;DHT22;3644;53.480;10.004;2023-03-23T03:57:37;13.10;99.90
7206;DHT22;3644;53.480;10.004;2023-03-23T04:00:04;13.00;99.90
7206;DHT22;3644;53.480;10.004;2023-03-23T04:02:43;13.10;99.90
7206;DHT22;3644;53.480;10.004;2023-03-23T04:05:09;13.10;99.90
7206;DHT22;3644;53.480;10.004;2023-03-23T04:07:36;13.10;99.90
7206;DHT22;3644;53.480;10.004;2023-03-23T04:10:05;13.10;99.90
7206;DHT22;3644;53.480;10.004;2023-03-23T04:12:31;13.10;99.90
7206;DHT22;3644;53.480;10.004;2023-03-23T04:14:57;13.20;99.90
7206;DHT22;3644;53.480;10.004;2023-03-23T04:17:22;13.10;99.90
7206;DHT22;3644;53.480;10.004;2023-03-23T04:19:51;13.10;99.90
7206;DHT22;3644;53.480;10.004;2023-03-23T04:22:17;13.10;99.90
7206;DHT22;3644;53.480;10.004;2023-03-23T04:24:43;13.10;99.90
7206;DHT22;3644;53.480;10.004;2023-03-23T04:27:08;13.00;99.90
7206;DHT22;3644;53.480;10.004;2023-03-23T04:29:34;13.10;99.90
7206;DHT22;3644;53.480;10.004;2023-03-23T04:32:02;13.10;99.90
7206;DHT22;3644;53.480;10.004;2023-03-23T04:34:27;14.30;99.90
7206;DHT22;3644;53.480;10.004;2023-03-23T04:36:53;13.10;99.90
7206;DHT22;3644;53.480;10.004;2023-03-23T04:39:19;13.10;99.90
7206;DHT22;3644;53.480;10.004;2023-03-23T04:41:44;13.20;99.90
7206;DHT22;3644;53.480;10.004;2023-03-23T04:44:11;13.10;99.90
7206;DHT22;3644;53.480;10.004;2023-03-23T04:46:43;13.10;99.90
7206;DHT22;3644;53.480;10.004;2023-03-23T04:49:10;13.10;99.90
7206;DHT22;3644;53.480;10.004;2023-03-23T04:51:36;13.20;99.90
7206;DHT22;3644;53.480;10.004;2023-03-23T04:54:04;13.20;99.90
7206;DHT22;3644;53.480;10.004;2023-03-23T04:56:30;13.20;99.90
7206;DHT22;3644;53.480;10.004;2023-03-23T04:58:55;13.10;99.90
7206;DHT22;3644;53.480;10.004;2023-03-23T05:01:21;13.10;99.90
7206;DHT22;3644;53.480;10.004;2023-03-23T05:03:46;13.00;99.90
7206;DHT22;3644;53.480;10.004;2023-03-23T05:06:12;13.00;99.90
7206;DHT22;3644;53.480;10.004;2023-03-23T05:08:37;13.00;99.90
7206;DHT22;3644;53.480;10.004;2023-03-23T05:11:04;13.10;99.90
7206;DHT22;3644;53.480;10.004;2023-03-23T05:13:31;13.10;99.90
7206;DHT22;3644;53.480;10.004;2023-03-23T05:15:56;13.20;99.90
7206;DHT22;3644;53.480;10.004;2023-03-23T05:18:22;13.10;99.90
7206;DHT22;3644;53.480;10.004;2023-03-23T05:20:48;13.10;99.90
7206;DHT22;3644;53.480;10.004;2023-03-23T05:23:14;13.20;99.90
7206;DHT22;3644;53.480;10.004;2023-03-23T05:25:40;13.20;99.90
7206;DHT22;3644;53.480;10.004;2023-03-23T05:28:07;13.20;99.90
7206;DHT22;3644;53.480;10.004;2023-03-23T05:30:34;13.10;99.90
7206;DHT22;3644;53.480;10.004;2023-03-23T05:32:59;13.20;99.90
7206;DHT22;3644;53.480;10.004;2023-03-23T05:35:25;13.20;99.90
7206;DHT22;3644;53.480;10.004;2023-03-23T05:37:50;13.20;99.90
7206;DHT22;3644;53.480;10.004;2023-03-23T05:40:19;13.20;99.90
7206;DHT22;3644;53.480;10.004;2023-03-23T05:42:45;13.20;99.90
7206;DHT22;3644;53.480;10.004;2023-03-23T05:45:12;13.10;99.90
7206;DHT22;3644;53.480;10.004;2023-03-23T05:47:39;13.20;99.90
7206;DHT22;3644;53.480;10.004;2023-03-23T05:50:06;13.20;99.90
7206;DHT22;3644;53.480;10.004;2023-03-23T05:52:32;13.20;99.90
7206;DHT22;3644;53.480;10.004;2023-03-23T05:55:00;13.30;99.90
7206;DHT22;3644;53.480;10.004;2023-03-23T05:57:26;13.30;99.90
7206;DHT22;3644;53.480;10.004;2023-03-23T05:59:52;13.20;99.90
7206;DHT22;3644;53.480;10.004;2023-03-23T06:02:18;13.30;99.90
7206;DHT22;3644;53.480;10.004;2023-03-23T06:04:43;13.20;99.90
7206;DHT22;3644;53.480;10.004;2023-03-23T06:07:10;13.20;99.90
7206;DHT22;3644;53.480;10.004;2023-03-23T06:09:40;13.30;99.90
7206;DHT22;3644;53.480;10.004;2023-03-23T06:12:07;13.20;99.90
7206;DHT22;3644;53.480;10.004;2023-03-23T06:14:33;13.20;99.90
7206;DHT22;3644;53.480;10.004;2023-03-23T06:16:58;13.20;99.90
7206;DHT22;3644;53.480;10.004;2023-03-23T06:19:24;13.20;99.90
7206;DHT22;3644;53.480;10.004;2023-03-23T06:21:52;13.10;99.90
7206;DHT22;3644;53.480;10.004;2023-03-23T06:24:19;13.20;99.90
7206;DHT22;3644;53.480;10.004;2023-03-23T06:26:44;13.30;99.90
7206;DHT22;3644;53.480;10.004;2023-03-23T06:29:10;13.30;99.90
7206;DHT22;3644;53.480;10.004;2023-03-23T06:31:41;13.30;99.90
7206;DHT22;3644;53.480;10.004;2023-03-23T06:34:08;13.20;99.90
7206;DHT22;3644;53.480;10.004;2023-03-23T06:36:34;13.20;99.90
7206;DHT22;3644;53.480;10.004;2023-03-23T06:39:00;13.20;99.90
7206;DHT22;3644;53.480;10.004;2023-03-23T06:41:26;13.20;99.90
7206;DHT22;3644;53.480;10.004;2023-03-23T06:43:51;13.30;99.90
7206;DHT22;3644;53.480;10.004;2023-03-23T06:46:17;13.30;99.90
7206;DHT22;3644;53.480;10.004;2023-03-23T06:48:43;13.30;99.90
7206;DHT22;3644;53.480;10.004;2023-03-23T06:51:08;13.30;99.90
7206;DHT22;3644;53.480;10.004;2023-03-23T06:53:34;13.30;99.90
7206;DHT22;3644;53.480;10.004;2023-03-23T06:56:00;13.40;99.90
7206;DHT22;3644;53.480;10.004;2023-03-23T06:58:26;13.40;99.90
7206;DHT22;3644;53.480;10.004;2023-03-23T07:00:55;13.50;99.90
7206;DHT22;3644;53.480;10.004;2023-03-23T07:03:24;13.50;99.90
7206;DHT22;3644;53.480;10.004;2023-03-23T07:05:51;13.50;99.90
7206;DHT22;3644;53.480;10.004;2023-03-23T07:08:17;13.70;99.90
7206;DHT22;3644;53.480;10.004;2023-03-23T07:10:42;13.80;99.90
7206;DHT22;3644;53.480;10.004;2023-03-23T07:13:08;14.10;99.90
7206;DHT22;3644;53.480;10.004;2023-03-23T07:15:34;14.20;99.90
7206;DHT22;3644;53.480;10.004;2023-03-23T07:18:00;14.40;99.90
7206;DHT22;3644;53.480;10.004;2023-03-23T07:20:25;14.60;99.90
7206;DHT22;3644;53.480;10.004;2023-03-23T07:22:53;14.60;99.90
7206;DHT22;3644;53.480;10.004;2023-03-23T07:25:19;14.70;99.90
7206;DHT22;3644;53.480;10.004;2023-03-23T07:27:45;14.60;99.90
7206;DHT22;3644;53.480;10.004;2023-03-23T07:30:12;14.60;99.90
7206;DHT22;3644;53.480;10.004;2023-03-23T07:32:38;14.60;99.90
7206;DHT22;3644;53.480;10.004;2023-03-23T07:35:04;14.60;99.90
7206;DHT22;3644;53.480;10.004;2023-03-23T07:37:30;14.50;99.90
7206;DHT22;3644;53.480;10.004;2023-03-23T07:39:57;14.50;99.90
7206;DHT22;3644;53.480;10.004;2023-03-23T07:42:22;14.50;99.90
7206;DHT22;3644;53.480;10.004;2023-03-23T07:44:48;14.60;99.90
7206;DHT22;3644;53.480;10.004;2023-03-23T07:47:14;14.60;99.90
7206;DHT22;3644;53.480;10.004;2023-03-23T07:49:39;14.50;99.90
7206;DHT22;3644;53.480;10.004;2023-03-23T07:52:06;14.70;99.90
7206;DHT22;3644;53.480;10.004;2023-03-23T07:54:31;14.70;99.90
7206;DHT22;3644;53.480;10.004;2023-03-23T07:56:57;14.80;99.90
7206;DHT22;3644;53.480;10.004;2023-03-23T07:59:22;14.90;99.90
7206;DHT22;3644;53.480;10.004;2023-03-23T08:01:48;15.00;99.90
7206;DHT22;3644;53.480;10.004;2023-03-23T08:04:13;15.10;99.90
7206;DHT22;3644;53.480;10.004;2023-03-23T08:06:40;15.10;99.90
7206;DHT22;3644;53.480;10.004;2023-03-23T08:09:06;15.20;99.90
7206;DHT22;3644;53.480;10.004;2023-03-23T08:11:33;15.20;99.90
7206;DHT22;3644;53.480;10.004;2023-03-23T08:13:59;15.30;99.90
7206;DHT22;3644;53.480;10.004;2023-03-23T08:16:25;15.20;99.90
7206;DHT22;3644;53.480;10.004;2023-03-23T08:18:50;15.00;99.90
7206;DHT22;3644;53.480;10.004;2023-03-23T08:21:17;14.90;99.90
7206;DHT22;3644;53.480;10.004;2023-03-23T08:23:42;14.90;99.90
7206;DHT22;3644;53.480;10.004;2023-03-23T08:26:09;14.90;99.90
7206;DHT22;3644;53.480;10.004;2023-03-23T08:28:36;14.90;99.90
7206;DHT22;3644;53.480;10.004;2023-03-23T08:31:09;15.00;99.90
7206;DHT22;3644;53.480;10.004;2023-03-23T08:33:36;14.90;99.90
7206;DHT22;3644;53.480;10.004;2023-03-23T08:36:02;14.80;99.90
7206;DHT22;3644;53.480;10.004;2023-03-23T08:38:29;14.70;99.90
7206;DHT22;3644;53.480;10.004;2023-03-23T08:41:02;14.70;99.90
7206;DHT22;3644;53.480;10.004;2023-03-23T08:43:29;14.60;99.90
7206;DHT22;3644;53.480;10.004;2023-03-23T08:45:54;14.60;99.90
7206;DHT22;3644;53.480;10.004;2023-03-23T08:48:21;14.70;99.90
7206;DHT22;3644;53.480;10.004;2023-03-23T08:50:48;14.80;99.90
7206;DHT22;3644;53.480;10.004;2023-03-23T08:53:15;14.90;99.90
7206;DHT22;3644;53.480;10.004;2023-03-23T08:55:41;14.70;99.90
7206;DHT22;3644;53.480;10.004;2023-03-23T08:58:07;14.80;99.90
7206;DHT22;3644;53.480;10.004;2023-03-23T09:00:32;14.80;99.90
7206;DHT22;3644;53.480;10.004;2023-03-23T09:02:58;14.80;99.90
7206;DHT22;3644;53.480;10.004;2023-03-23T09:05:26;15.00;99.90
7206;DHT22;3644;53.480;10.004;2023-03-23T09:07:54;15.00;99.90
7206;DHT22;3644;53.480;10.004;2023-03-23T09:10:21;14.90;99.90
7206;DHT22;3644;53.480;10.004;2023-03-23T09:12:47;15.00;99.90
7206;DHT22;3644;53.480;10.004;2023-03-23T09:15:15;15.00;99.90
7206;DHT22;3644;53.480;10.004;2023-03-23T09:17:47;15.00;99.90
7206;DHT22;3644;53.480;10.004;2023-03-23T09:20:15;15.00;99.90
7206;DHT22;3644;53.480;10.004;2023-03-23T09:22:43;15.10;99.90
7206;DHT22;3644;53.480;10.004;2023-03-23T09:25:10;15.20;99.90
7206;DHT22;3644;53.480;10.004;2023-03-23T09:27:37;15.30;99.90
7206;DHT22;3644;53.480;10.004;2023-03-23T09:30:06;15.30;99.90
7206;DHT22;3644;53.480;10.004;2023-03-23T09:32:33;15.30;99.90
7206;DHT22;3644;53.480;10.004;2023-03-23T09:35:00;15.10;99.90
7206;DHT22;3644;53.480;10.004;2023-03-23T09:37:26;15.10;99.90
7206;DHT22;3644;53.480;10.004;2023-03-23T09:39:51;14.90;99.90
7206;DHT22;3644;53.480;10.004;2023-03-23T09:48:11;14.60;99.90
7206;DHT22;3644;53.480;10.004;2023-03-23T09:50:43;14.50;99.90
7206;DHT22;3644;53.480;10.004;2023-03-23T09:53:15;14.70;99.90
7206;DHT22;3644;53.480;10.004;2023-03-23T09:55:43;14.90;99.90
7206;DHT22;3644;53.480;10.004;2023-03-23T09:58:23;14.80;99.90
7206;DHT22;3644;53.480;10.004;2023-03-23T10:01:07;14.90;99.90
7206;DHT22;3644;53.480;10.004;2023-03-23T10:03:40;14.90;99.90
7206;DHT22;3644;53.480;10.004;2023-03-23T10:06:09;15.00;99.90
7206;DHT22;3644;53.480;10.004;2023-03-23T10:08:36;15.00;99.90
7206;DHT22;3644;53.480;10.004;2023-03-23T10:22:09;15.40;99.90
7206;DHT22;3644;53.480;10.004;2023-03-23T10:25:19;15.40;99.90
7206;DHT22;3644;53.480;10.004;2023-03-23T10:27:49;15.40;99.90
7206;DHT22;3644;53.480;10.004;2023-03-23T10:30:27;15.60;99.90
7206;DHT22;3644;53.480;10.004;2023-03-23T10:33:00;15.70;99.90
7206;DHT22;3644;53.480;10.004;2023-03-23T10:35:34;15.80;99.90
7206;DHT22;3644;53.480;10.004;2023-03-23T10:38:03;15.90;99.90
7206;DHT22;3644;53.480;10.004;2023-03-23T10:40:31;16.00;99.90
7206;DHT22;3644;53.480;10.004;2023-03-23T10:42:58;15.90;99.90
7206;DHT22;3644;53.480;10.004;2023-03-23T10:45:29;15.90;99.90
7206;DHT22;3644;53.480;10.004;2023-03-23T10:50:35;15.90;99.90
7206;DHT22;3644;53.480;10.004;2023-03-23T10:53:16;15.90;99.90
7206;DHT22;3644;53.480;10.004;2023-03-23T10:55:42;16.00;99.90
7206;DHT22;3644;53.480;10.004;2023-03-23T10:58:12;16.20;99.90
7206;DHT22;3644;53.480;10.004;2023-03-23T11:00:44;16.30;99.90
7206;DHT22;3644;53.480;10.004;2023-03-23T11:05:48;16.30;99.90
7206;DHT22;3644;53.480;10.004;2023-03-23T11:08:23;16.40;99.90
7206;DHT22;3644;53.480;10.004;2023-03-23T11:10:56;16.50;99.90
7206;DHT22;3644;53.480;10.004;2023-03-23T11:13:31;16.40;99.90
7206;DHT22;3644;53.480;10.004;2023-03-23T11:15:57;16.40;99.90
7206;DHT22;3644;53.480;10.004;2023-03-23T11:18:34;16.60;99.90
7206;DHT22;3644;53.480;10.004;2023-03-23T11:21:02;16.60;99.90
7206;DHT22;3644;53.480;10.004;2023-03-23T11:23:47;16.70;99.90
7206;DHT22;3644;53.480;10.004;2023-03-23T11:26:30;16.60;99.90
7206;DHT22;3644;53.480;10.004;2023-03-23T11:29:06;16.40;99.90
7206;DHT22;3644;53.480;10.004;2023-03-23T11:31:40;16.40;99.90
7206;DHT22;3644;53.480;10.004;2023-03-23T11:34:18;16.40;99.90
7206;DHT22;3644;53.480;10.004;2023-03-23T11:41:51;16.90;99.90
7206;DHT22;3644;53.480;10.004;2023-03-23T11:44:17;16.70;99.90
7206;DHT22;3644;53.480;10.004;2023-03-23T11:47:00;16.80;99.90
7206;DHT22;3644;53.480;10.004;2023-03-23T11:52:13;16.90;99.90
7206;DHT22;3644;53.480;10.004;2023-03-23T11:54:56;17.10;99.90
7206;DHT22;3644;53.480;10.004;2023-03-23T11:57:23;17.10;99.90
7206;DHT22;3644;53.480;10.004;2023-03-23T11:59:49;17.00;99.90
7206;DHT22;3644;53.480;10.004;2023-03-23T12:05:18;16.80;99.90
7206;DHT22;3644;53.480;10.004;2023-03-23T12:08:04;16.60;99.90
7206;DHT22;3644;53.480;10.004;2023-03-23T12:13:28;16.80;99.90
7206;DHT22;3644;53.480;10.004;2023-03-23T12:16:17;16.70;99.90
7206;DHT22;3644;53.480;10.004;2023-03-23T12:19:13;16.80;99.90
7206;DHT22;3644;53.480;10.004;2023-03-23T12:21:53;16.70;99.90
7206;DHT22;3644;53.480;10.004;2023-03-23T12:27:02;16.60;99.90
7206;DHT22;3644;53.480;10.004;2023-03-23T12:32:47;16.30;99.90
7206;DHT22;3644;53.480;10.004;2023-03-23T12:36:09;16.20;99.90
7206;DHT22;3644;53.480;10.004;2023-03-23T12:41:16;16.40;99.90
7206;DHT22;3644;53.480;10.004;2023-03-23T12:44:04;16.70;99.90
7206;DHT22;3644;53.480;10.004;2023-03-23T12:49:37;17.00;99.90
7206;DHT22;3644;53.480;10.004;2023-03-23T12:52:15;17.20;99.90
7206;DHT22;3644;53.480;10.004;2023-03-23T12:54:47;17.30;99.90
7206;DHT22;3644;53.480;10.004;2023-03-23T12:59:55;17.20;99.90
7206;DHT22;3644;53.480;10.004;2023-03-23T13:07:58;17.60;99.90
7206;DHT22;3644;53.480;10.004;2023-03-23T13:10:29;17.70;99.90
7206;DHT22;3644;53.480;10.004;2023-03-23T13:12:57;17.80;99.90
7206;DHT22;3644;53.480;10.004;2023-03-23T13:15:37;17.90;99.90
7206;DHT22;3644;53.480;10.004;2023-03-23T13:18:31;18.00;99.90
7206;DHT22;3644;53.480;10.004;2023-03-23T13:21:25;18.00;99.90
7206;DHT22;3644;53.480;10.004;2023-03-23T13:26:24;17.80;99.90
7206;DHT22;3644;53.480;10.004;2023-03-23T13:28:59;17.90;99.90
7206;DHT22;3644;53.480;10.004;2023-03-23T13:31:32;17.90;99.90
7206;DHT22;3644;53.480;10.004;2023-03-23T13:36:58;17.90;99.90
7206;DHT22;3644;53.480;10.004;2023-03-23T13:39:27;17.90;99.90
7206;DHT22;3644;53.480;10.004;2023-03-23T13:42:20;17.90;99.90
7206;DHT22;3644;53.480;10.004;2023-03-23T13:49:58;17.60;99.90
7206;DHT22;3644;53.480;10.004;2023-03-23T13:54:50;17.80;99.90
7206;DHT22;3644;53.480;10.004;2023-03-23T13:57:32;17.80;99.90
7206;DHT22;3644;53.480;10.004;2023-03-23T14:00:08;17.60;99.90
7206;DHT22;3644;53.480;10.004;2023-03-23T14:02:41;17.40;99.90
7206;DHT22;3644;53.480;10.004;2023-03-23T14:07:57;17.60;99.90
7206;DHT22;3644;53.480;10.004;2023-03-23T14:13:19;17.40;99.90
7206;DHT22;3644;53.480;10.004;2023-03-23T14:15:58;17.10;99.90
7206;DHT22;3644;53.480;10.004;2023-03-23T14:18:29;16.10;99.90
7206;DHT22;3644;53.480;10.004;2023-03-23T14:20:55;15.70;99.90
7206;DHT22;3644;53.480;10.004;2023-03-23T14:23:22;15.70;99.90
7206;DHT22;3644;53.480;10.004;2023-03-23T14:25:56;15.70;99.90
7206;DHT22;3644;53.480;10.004;2023-03-23T14:28:22;16.00;99.90
7206;DHT22;3644;53.480;10.004;2023-03-23T14:30:52;15.90;99.90
7206;DHT22;3644;53.480;10.004;2023-03-23T14:33:19;16.00;99.90
7206;DHT22;3644;53.480;10.004;2023-03-23T14:35:45;15.80;99.90
7206;DHT22;3644;53.480;10.004;2023-03-23T14:38:20;15.90;99.90
7206;DHT22;3644;53.480;10.004;2023-03-23T14:40:46;15.60;99.90
7206;DHT22;3644;53.480;10.004;2023-03-23T14:43:15;15.40;99.90
7206;DHT22;3644;53.480;10.004;2023-03-23T14:45:41;15.40;99.90
7206;DHT22;3644;53.480;10.004;2023-03-23T14:48:08;15.50;99.90
7206;DHT22;3644;53.480;10.004;2023-03-23T14:53:29;15.50;99.90
7206;DHT22;3644;53.480;10.004;2023-03-23T14:55:58;15.20;99.90
7206;DHT22;3644;53.480;10.004;2023-03-23T14:58:24;15.20;99.90
7206;DHT22;3644;53.480;10.004;2023-03-23T15:00:59;15.10;99.90
7206;DHT22;3644;53.480;10.004;2023-03-23T15:03:28;15.20;99.90
7206;DHT22;3644;53.480;10.004;2023-03-23T15:05:58;15.10;99.90
7206;DHT22;3644;53.480;10.004;2023-03-23T15:08:30;14.90;99.90
7206;DHT22;3644;53.480;10.004;2023-03-23T15:11:33;15.10;99.90
7206;DHT22;3644;53.480;10.004;2023-03-23T15:14:01;15.00;99.90
7206;DHT22;3644;53.480;10.004;2023-03-23T15:16:31;15.00;99.90
7206;DHT22;3644;53.480;10.004;2023-03-23T15:19:13;15.10;99.90
7206;DHT22;3644;53.480;10.004;2023-03-23T15:21:55;15.20;99.90
7206;DHT22;3644;53.480;10.004;2023-03-23T15:24:25;15.20;99.90
7206;DHT22;3644;53.480;10.004;2023-03-23T15:26:52;15.30;99.90
7206;DHT22;3644;53.480;10.004;2023-03-23T15:29:19;15.30;99.90
7206;DHT22;3644;53.480;10.004;2023-03-23T15:31:55;15.30;99.90
7206;DHT22;3644;53.480;10.004;2023-03-23T15:34:36;15.30;99.90
7206;DHT22;3644;53.480;10.004;2023-03-23T15:37:20;15.20;99.90
7206;DHT22;3644;53.480;10.004;2023-03-23T15:39:46;15.00;99.90
7206;DHT22;3644;53.480;10.004;2023-03-23T15:42:32;14.90;99.90
7206;DHT22;3644;53.480;10.004;2023-03-23T15:50:16;15.60;99.90
7206;DHT22;3644;53.480;10.004;2023-03-23T15:52:42;15.70;99.90
7206;DHT22;3644;53.480;10.004;2023-03-23T15:55:35;15.80;99.90
7206;DHT22;3644;53.480;10.004;2023-03-23T15:58:08;15.70;99.90
7206;DHT22;3644;53.480;10.004;2023-03-23T16:00:34;15.40;99.90
7206;DHT22;3644;53.480;10.004;2023-03-23T16:03:01;15.20;99.90
7206;DHT22;3644;53.480;10.004;2023-03-23T16:05:29;15.10;99.90
7206;DHT22;3644;53.480;10.004;2023-03-23T16:07:55;15.00;99.90
7206;DHT22;3644;53.480;10.004;2023-03-23T16:10:22;14.90;99.90
7206;DHT22;3644;53.480;10.004;2023-03-23T16:12:48;15.00;99.90
7206;DHT22;3644;53.480;10.004;2023-03-23T16:15:15;14.90;99.90
7206;DHT22;3644;53.480;10.004;2023-03-23T16:17:42;14.80;99.90
7206;DHT22;3644;53.480;10.004;2023-03-23T16:20:13;14.90;99.90
7206;DHT22;3644;53.480;10.004;2023-03-23T16:22:39;14.70;99.90
7206;DHT22;3644;53.480;10.004;2023-03-23T16:25:05;14.70;99.90
7206;DHT22;3644;53.480;10.004;2023-03-23T16:27:31;14.60;99.90
7206;DHT22;3644;53.480;10.004;2023-03-23T16:29:57;14.50;99.90
7206;DHT22;3644;53.480;10.004;2023-03-23T16:32:25;14.50;99.90
7206;DHT22;3644;53.480;10.004;2023-03-23T16:34:50;14.40;99.90
7206;DHT22;3644;53.480;10.004;2023-03-23T16:37:16;14.30;99.90
7206;DHT22;3644;53.480;10.004;2023-03-23T16:39:41;14.50;99.90
7206;DHT22;3644;53.480;10.004;2023-03-23T16:42:07;14.50;99.90
7206;DHT22;3644;53.480;10.004;2023-03-23T16:44:33;14.50;99.90
7206;DHT22;3644;53.480;10.004;2023-03-23T16:46:58;14.50;99.90
7206;DHT22;3644;53.480;10.004;2023-03-23T16:49:24;14.50;99.90
7206;DHT22;3644;53.480;10.004;2023-03-23T16:51:49;14.50;99.90
7206;DHT22;3644;53.480;10.004;2023-03-23T16:54:15;14.50;99.90
7206;DHT22;3644;53.480;10.004;2023-03-23T16:56:41;14.50;99.90
7206;DHT22;3644;53.480;10.004;2023-03-23T16:59:13;14.60;99.90
7206;DHT22;3644;53.480;10.004;2023-03-23T17:01:39;14.60;99.90
7206;DHT22;3644;53.480;10.004;2023-03-23T17:04:05;14.70;99.90
7206;DHT22;3644;53.480;10.004;2023-03-23T17:06:31;14.60;99.90
7206;DHT22;3644;53.480;10.004;2023-03-23T17:08:56;14.60;99.90
7206;DHT22;3644;53.480;10.004;2023-03-23T17:11:22;14.60;99.90
7206;DHT22;3644;53.480;10.004;2023-03-23T17:13:48;14.50;99.90
7206;DHT22;3644;53.480;10.004;2023-03-23T17:16:13;14.40;99.90
7206;DHT22;3644;53.480;10.004;2023-03-23T17:18:39;14.50;99.90
7206;DHT22;3644;53.480;10.004;2023-03-23T17:21:04;14.50;99.90
7206;DHT22;3644;53.480;10.004;2023-03-23T17:23:31;14.50;99.90
7206;DHT22;3644;53.480;10.004;2023-03-23T17:25:56;14.50;99.90
7206;DHT22;3644;53.480;10.004;2023-03-23T17:28:22;14.40;99.90
7206;DHT22;3644;53.480;10.004;2023-03-23T17:30:47;14.40;99.90
7206;DHT22;3644;53.480;10.004;2023-03-23T17:33:13;14.40;99.90
7206;DHT22;3644;53.480;10.004;2023-03-23T17:35:39;14.30;99.90
7206;DHT22;3644;53.480;10.004;2023-03-23T17:38:04;14.30;99.90
7206;DHT22;3644;53.480;10.004;2023-03-23T17:40:30;14.30;99.90
7206;DHT22;3644;53.480;10.004;2023-03-23T17:42:56;14.30;99.90
7206;DHT22;3644;53.480;10.004;2023-03-23T17:45:21;14.30;99.90